createdAt,value
2018-06-18T00:01:13.944Z,64.12
2018-06-18T00:03:43.301Z,64.34
2018-06-18T00:06:15.978Z,64.61
2018-06-18T00:08:45.325Z,65.14
2018-06-18T00:11:14.899Z,64.71
2018-06-18T00:13:44.224Z,64.55
2018-06-18T00:16:13.548Z,64.90
2018-06-18T00:18:43.277Z,64.46
2018-06-18T00:21:12.670Z,64.78
2018-06-18T00:23:42.008Z,64.48
2018-06-18T00:26:11.881Z,64.81
2018-06-18T00:28:41.235Z,64.58
2018-06-18T00:31:10.800Z,65.14
2018-06-18T00:33:40.108Z,65.73
2018-06-18T00:36:09.456Z,65.07
2018-06-18T00:38:38.791Z,65.73
2018-06-18T00:41:08.320Z,66.37
2018-06-18T00:43:37.667Z,66.83
2018-06-18T00:46:07.015Z,66.60
2018-06-18T00:48:36.736Z,66.08
2018-06-18T00:51:06.468Z,66.53
2018-06-18T00:53:36.045Z,66.40
2018-06-18T00:56:10.701Z,66.64
2018-06-18T00:58:40.458Z,65.91
2018-06-18T01:01:10.699Z,65.50
2018-06-18T01:03:41.037Z,65.57
2018-06-18T01:06:10.508Z,66.79
2018-06-18T01:08:40.059Z,67.17
2018-06-18T01:11:09.411Z,66.82
2018-06-18T01:13:38.736Z,67.55
2018-06-18T01:16:09.047Z,67.41
2018-06-18T01:18:38.371Z,67.75
2018-06-18T01:21:07.721Z,67.70
2018-06-18T01:23:50.605Z,67.50
2018-06-18T01:26:20.318Z,67.00
2018-06-18T01:28:49.654Z,67.04
2018-06-18T01:31:18.977Z,67.66
2018-06-18T01:33:48.789Z,68.00
2018-06-18T01:36:18.607Z,67.83
2018-06-18T01:38:47.913Z,66.94
2018-06-18T01:41:17.617Z,66.32
2018-06-18T01:43:46.939Z,65.88
2018-06-18T01:46:16.523Z,65.62
2018-06-18T01:48:46.140Z,66.39
2018-06-18T01:51:15.827Z,66.03
2018-06-18T01:53:45.156Z,66.44
2018-06-18T01:56:14.469Z,66.98
2018-06-18T01:58:47.051Z,67.16
2018-06-18T02:01:16.361Z,67.62
2018-06-18T02:03:45.705Z,67.89
2018-06-18T02:06:15.319Z,67.73
2018-06-18T02:08:45.673Z,67.87
2018-06-18T02:11:14.964Z,68.13
2018-06-18T02:13:44.566Z,68.32
2018-06-18T02:16:14.212Z,68.36
2018-06-18T02:18:43.768Z,68.28
2018-06-18T02:21:13.453Z,69.00
2018-06-18T02:23:43.256Z,69.31
2018-06-18T02:26:13.727Z,69.15
2018-06-18T02:28:49.178Z,69.82
2018-06-18T02:31:24.121Z,70.45
2018-06-18T02:33:59.168Z,70.88
2018-06-18T02:36:33.811Z,71.69
2018-06-18T02:39:09.423Z,71.59
2018-06-18T02:41:39.158Z,71.62
2018-06-18T02:44:08.625Z,71.77
2018-06-18T02:46:38.338Z,71.53
2018-06-18T02:49:08.264Z,71.71
2018-06-18T02:51:37.867Z,71.04
2018-06-18T02:54:08.293Z,70.76
2018-06-18T02:56:43.861Z,70.81
2018-06-18T02:59:13.893Z,70.50
2018-06-18T03:01:43.255Z,70.83
2018-06-18T03:04:12.961Z,70.54
2018-06-18T03:06:42.564Z,70.52
2018-06-18T03:09:13.288Z,70.77
2018-06-18T03:11:43.218Z,70.90
2018-06-18T03:14:12.537Z,71.53
2018-06-18T03:16:42.316Z,71.15
2018-06-18T03:19:16.848Z,71.47
2018-06-18T03:21:51.405Z,71.26
2018-06-18T03:24:26.250Z,71.47
2018-06-18T03:29:03.846Z,71.41
2018-06-18T03:31:33.808Z,71.37
2018-06-18T03:34:03.137Z,72.36
2018-06-18T03:36:32.731Z,71.08
2018-06-18T03:39:02.384Z,71.15
2018-06-18T03:41:31.697Z,71.09
2018-06-18T03:44:05.797Z,71.47
2018-06-18T03:46:35.538Z,70.37
2018-06-18T03:49:05.244Z,69.42
2018-06-18T03:51:34.605Z,70.06
2018-06-18T03:54:03.954Z,70.73
2018-06-18T03:56:33.296Z,70.42
2018-06-18T03:59:02.897Z,70.30
2018-06-18T04:03:49.292Z,68.51
2018-06-18T04:06:23.788Z,67.77
2018-06-18T04:08:58.449Z,68.10
2018-06-18T04:11:33.161Z,67.27
2018-06-18T04:14:02.728Z,66.96
2018-06-18T04:16:32.085Z,69.18
2018-06-18T04:19:01.807Z,67.46
2018-06-18T04:21:31.931Z,67.60
2018-06-18T04:24:01.571Z,67.76
2018-06-18T04:26:30.959Z,67.75
2018-06-18T04:29:00.270Z,67.88
2018-06-18T04:31:30.093Z,68.34
2018-06-18T04:34:08.804Z,68.74
2018-06-18T04:36:38.133Z,68.98
2018-06-18T04:39:09.411Z,67.28
2018-06-18T04:41:43.806Z,66.93
2018-06-18T04:44:18.457Z,68.33
2018-06-18T04:46:52.942Z,68.13
2018-06-18T04:49:27.449Z,67.65
2018-06-18T04:51:56.796Z,67.13
2018-06-18T04:54:26.122Z,67.58
2018-06-18T04:56:55.465Z,66.90
2018-06-18T04:59:25.567Z,67.42
2018-06-18T05:01:55.254Z,69.09
2018-06-18T05:04:24.569Z,69.92
2018-06-18T05:06:53.921Z,71.00
2018-06-18T05:09:31.380Z,70.33
2018-06-18T05:12:01.444Z,67.92
2018-06-18T05:14:30.768Z,68.77
2018-06-18T05:17:00.338Z,69.54
2018-06-18T05:19:29.681Z,69.80
2018-06-18T05:21:59.386Z,68.48
2018-06-18T05:24:29.267Z,68.38
2018-06-18T05:26:59.417Z,68.47
2018-06-18T05:29:28.743Z,69.54
2018-06-18T05:31:58.054Z,68.61
2018-06-18T05:34:29.826Z,67.94
2018-06-18T05:37:01.762Z,68.07
2018-06-18T05:39:31.071Z,68.38
2018-06-18T05:42:00.822Z,69.12
2018-06-18T05:44:30.934Z,68.42
2018-06-18T05:47:00.970Z,68.03
2018-06-18T05:49:30.642Z,67.51
2018-06-18T05:52:00.428Z,67.29
2018-06-18T05:54:29.783Z,68.31
2018-06-18T05:57:00.332Z,69.47
2018-06-18T05:59:29.850Z,68.44
2018-06-18T06:01:59.892Z,68.98
2018-06-18T06:04:29.224Z,67.41
2018-06-18T06:06:58.612Z,67.89
2018-06-18T06:09:28.579Z,68.34
2018-06-18T06:11:57.909Z,68.23
2018-06-18T06:14:27.194Z,67.23
2018-06-18T06:16:56.550Z,67.27
2018-06-18T06:19:25.803Z,66.36
2018-06-18T06:21:55.456Z,66.38
2018-06-18T06:24:25.546Z,66.44
2018-06-18T06:26:55.369Z,65.29
2018-06-18T06:29:24.664Z,65.13
2018-06-18T06:31:54.416Z,66.34
2018-06-18T06:34:24.294Z,65.58
2018-06-18T06:36:53.971Z,65.81
2018-06-18T06:39:23.300Z,65.39
2018-06-18T06:41:57.480Z,65.51
2018-06-18T06:44:27.807Z,64.95
2018-06-18T06:46:57.115Z,65.36
2018-06-18T06:49:28.756Z,63.77
2018-06-18T06:51:58.055Z,64.68
2018-06-18T06:54:27.640Z,64.26
2018-06-18T06:56:56.986Z,63.00
2018-06-18T06:59:26.909Z,63.62
2018-06-18T07:01:56.245Z,64.01
2018-06-18T07:04:25.939Z,62.85
2018-06-18T07:06:55.518Z,61.93
2018-06-18T07:09:24.833Z,62.43
2018-06-18T07:11:54.157Z,62.76
2018-06-18T07:14:23.476Z,62.18
2018-06-18T07:16:53.999Z,63.06
2018-06-18T07:19:23.311Z,62.89
2018-06-18T07:21:52.653Z,64.04
2018-06-18T07:24:22.007Z,63.06
2018-06-18T07:26:51.656Z,63.89
2018-06-18T07:29:21.301Z,62.52
2018-06-18T07:31:50.637Z,62.54
2018-06-18T07:34:19.974Z,61.99
2018-06-18T07:36:49.574Z,62.64
2018-06-18T07:39:19.323Z,62.57
2018-06-18T07:41:48.652Z,61.97
2018-06-18T07:44:17.994Z,62.20
2018-06-18T07:46:47.950Z,61.40
2018-06-18T07:49:17.309Z,62.06
2018-06-18T07:51:46.636Z,62.85
2018-06-18T07:54:15.981Z,62.47
2018-06-18T07:56:45.309Z,63.05
2018-06-18T07:59:14.911Z,62.61
2018-06-18T08:01:44.213Z,62.32
2018-06-18T08:04:13.573Z,61.50
2018-06-18T08:06:43.196Z,60.76
2018-06-18T08:09:14.051Z,61.47
2018-06-18T08:11:43.697Z,63.08
2018-06-18T08:14:13.534Z,60.30
2018-06-18T08:16:42.854Z,60.61
2018-06-18T08:19:13.186Z,61.33
2018-06-18T08:21:42.476Z,61.54
2018-06-18T08:24:11.805Z,60.61
2018-06-18T08:26:41.156Z,60.70
2018-06-18T08:29:10.492Z,60.19
2018-06-18T08:31:39.825Z,60.55
2018-06-18T08:34:09.144Z,60.08
2018-06-18T08:36:38.461Z,59.39
2018-06-18T08:39:09.820Z,55.89
2018-06-18T08:41:39.227Z,55.56
2018-06-18T08:44:08.830Z,56.35
2018-06-18T08:46:38.167Z,56.75
2018-06-18T08:49:09.175Z,55.78
2018-06-18T08:51:43.669Z,56.32
2018-06-18T08:54:18.195Z,55.02
2018-06-18T08:56:52.691Z,54.51
2018-06-18T08:59:28.268Z,54.09
2018-06-18T09:01:58.550Z,53.09
2018-06-18T09:04:33.031Z,53.30
2018-06-18T09:07:02.827Z,53.32
2018-06-18T09:09:33.030Z,51.56
2018-06-18T09:12:02.337Z,51.15
2018-06-18T09:14:31.641Z,51.58
2018-06-18T09:17:00.955Z,52.26
2018-06-18T09:19:30.483Z,52.08
2018-06-18T09:22:00.470Z,52.63
2018-06-18T09:24:33.906Z,50.72
2018-06-18T09:27:08.466Z,50.80
2018-06-18T09:29:38.137Z,50.25
2018-06-18T09:32:13.426Z,51.25
2018-06-18T09:34:43.243Z,51.37
2018-06-18T09:37:12.560Z,50.17
2018-06-18T09:39:41.892Z,50.48
2018-06-18T09:42:12.117Z,51.07
2018-06-18T09:44:41.404Z,49.96
2018-06-18T09:47:10.947Z,49.85
2018-06-18T09:49:45.422Z,48.73
2018-06-18T09:52:20.447Z,46.31
2018-06-18T09:54:55.573Z,47.58
2018-06-18T09:57:30.095Z,45.39
2018-06-18T10:00:04.925Z,47.70
2018-06-18T10:02:34.269Z,47.62
2018-06-18T10:05:04.036Z,47.80
2018-06-18T10:07:33.623Z,47.51
2018-06-18T10:10:03.692Z,47.50
2018-06-18T10:12:33.020Z,48.19
2018-06-18T10:15:02.710Z,48.22
2018-06-18T10:17:32.036Z,48.29
2018-06-18T10:20:01.853Z,49.55
2018-06-18T10:22:31.183Z,49.16
2018-06-18T10:25:00.918Z,47.53
2018-06-18T10:27:30.232Z,46.90
2018-06-18T10:29:59.928Z,48.30
2018-06-18T10:32:35.349Z,47.74
2018-06-18T10:35:09.908Z,48.30
2018-06-18T10:37:44.508Z,48.50
2018-06-18T10:40:19.520Z,48.29
2018-06-18T10:42:54.152Z,47.59
2018-06-18T10:45:23.677Z,47.84
2018-06-18T10:47:53.913Z,48.64
2018-06-18T10:50:23.529Z,49.05
2018-06-18T10:52:53.161Z,50.70
2018-06-18T10:55:22.691Z,51.36
2018-06-18T10:57:52.356Z,51.01
2018-06-18T11:00:25.045Z,50.37
2018-06-18T11:02:55.299Z,51.24
2018-06-18T11:05:30.140Z,51.40
2018-06-18T11:07:59.435Z,50.71
2018-06-18T11:10:29.201Z,49.99
2018-06-18T11:12:59.014Z,50.65
2018-06-18T11:15:28.345Z,49.92
2018-06-18T11:18:03.199Z,49.91
2018-06-18T11:20:39.641Z,49.52
2018-06-18T11:23:14.025Z,49.97
2018-06-18T11:25:48.535Z,51.29
2018-06-18T11:28:18.413Z,50.80
2018-06-18T11:30:48.944Z,50.44
2018-06-18T11:33:18.273Z,51.09
2018-06-18T11:35:48.007Z,51.34
2018-06-18T11:38:17.540Z,50.68
2018-06-18T11:40:46.933Z,51.09
2018-06-18T11:43:16.458Z,50.50
2018-06-18T11:45:45.807Z,50.96
2018-06-18T11:48:19.820Z,51.72
2018-06-18T11:50:49.841Z,52.42
2018-06-18T11:53:19.914Z,52.74
2018-06-18T11:55:50.024Z,53.76
2018-06-18T11:58:25.573Z,53.75
2018-06-18T12:01:01.242Z,52.55
2018-06-18T12:03:35.739Z,51.16
2018-06-18T12:06:10.488Z,52.27
2018-06-18T12:08:45.099Z,52.34
2018-06-18T12:11:14.502Z,51.30
2018-06-18T12:13:44.117Z,50.74
2018-06-18T12:16:13.466Z,50.78
2018-06-18T12:18:42.769Z,50.52
2018-06-18T12:21:13.515Z,49.30
2018-06-18T12:23:42.854Z,51.58
2018-06-18T12:26:12.576Z,49.01
2018-06-18T12:28:41.974Z,50.49
2018-06-18T12:31:11.342Z,49.41
2018-06-18T12:33:40.628Z,51.42
2018-06-18T12:36:10.193Z,49.91
2018-06-18T12:38:39.491Z,51.72
2018-06-18T12:41:09.639Z,51.36
2018-06-18T12:43:41.436Z,52.63
2018-06-18T12:46:16.301Z,51.95
2018-06-18T12:48:51.378Z,51.32
2018-06-18T12:51:27.712Z,51.51
2018-06-18T12:54:02.055Z,51.11
2018-06-18T12:56:36.688Z,51.35
2018-06-18T12:59:06.235Z,50.96
2018-06-18T13:01:37.812Z,50.61
2018-06-18T13:04:08.412Z,50.34
2018-06-18T13:06:38.265Z,49.04
2018-06-18T13:09:08.955Z,49.11
2018-06-18T13:11:39.299Z,48.52
2018-06-18T13:14:09.008Z,49.08
2018-06-18T13:16:38.735Z,47.91
2018-06-18T13:19:08.059Z,49.49
2018-06-18T13:21:37.745Z,49.42
2018-06-18T13:24:07.056Z,49.24
2018-06-18T13:26:36.399Z,50.01
2018-06-18T13:29:05.753Z,48.11
2018-06-18T13:31:35.130Z,48.57
2018-06-18T13:34:04.868Z,47.59
2018-06-18T13:36:34.490Z,47.78
2018-06-18T13:39:09.328Z,48.49
2018-06-18T13:41:43.990Z,48.59
2018-06-18T13:44:18.928Z,49.06
2018-06-18T13:46:53.644Z,49.21
2018-06-18T13:49:27.370Z,49.33
2018-06-18T13:51:57.117Z,48.10
2018-06-18T13:54:27.335Z,48.76
2018-06-18T13:56:56.648Z,48.61
2018-06-18T13:59:25.956Z,48.31
2018-06-18T14:01:55.568Z,47.70
2018-06-18T14:04:24.914Z,48.13
2018-06-18T14:06:54.512Z,49.08
2018-06-18T14:09:23.855Z,48.83
2018-06-18T14:11:53.220Z,48.35
2018-06-18T14:14:23.542Z,48.57
2018-06-18T14:16:53.198Z,49.40
2018-06-18T14:19:28.458Z,49.33
2018-06-18T14:21:57.925Z,48.75
2018-06-18T14:24:28.055Z,47.20
2018-06-18T14:26:57.679Z,47.92
2018-06-18T14:29:32.577Z,46.71
2018-06-18T14:32:01.924Z,47.97
2018-06-18T14:34:36.761Z,49.21
2018-06-18T14:37:11.614Z,48.19
2018-06-18T14:39:46.509Z,47.81
2018-06-18T14:42:16.122Z,48.27
2018-06-18T14:44:46.388Z,48.91
2018-06-18T14:47:15.755Z,49.16
2018-06-18T14:49:45.068Z,49.55
2018-06-18T14:52:14.416Z,49.21
2018-06-18T14:54:44.581Z,48.95
2018-06-18T14:57:14.811Z,47.93
2018-06-18T15:00:01.181Z,49.36
2018-06-18T15:02:30.426Z,48.77
2018-06-18T15:05:01.399Z,48.38
2018-06-18T15:07:31.542Z,49.07
2018-06-18T15:10:01.157Z,47.77
2018-06-18T15:12:34.480Z,48.50
2018-06-18T15:15:09.333Z,48.33
2018-06-18T15:17:38.689Z,48.71
2018-06-18T15:20:08.032Z,49.51
2018-06-18T15:22:37.632Z,49.58
2018-06-18T15:25:10.872Z,49.64
2018-06-18T15:27:40.188Z,48.92
2018-06-18T15:30:10.027Z,49.00
2018-06-18T15:32:41.762Z,49.46
2018-06-18T15:35:13.846Z,49.37
2018-06-18T15:37:43.985Z,49.42
2018-06-18T15:40:13.321Z,49.13
2018-06-18T15:42:42.660Z,48.55
2018-06-18T15:45:12.647Z,49.60
2018-06-18T15:47:42.278Z,49.91
2018-06-18T15:50:11.586Z,50.59
2018-06-18T15:52:41.318Z,51.24
2018-06-18T15:55:11.508Z,51.05
2018-06-18T15:57:40.892Z,51.76
2018-06-18T16:00:10.196Z,51.64
2018-06-18T16:02:39.641Z,52.58
2018-06-18T16:05:09.466Z,51.31
2018-06-18T16:07:39.137Z,51.21
2018-06-18T16:10:08.448Z,51.63
2018-06-18T16:12:37.767Z,50.33
2018-06-18T16:15:07.320Z,50.40
2018-06-18T16:17:37.264Z,50.93
2018-06-18T16:20:07.622Z,50.71
2018-06-18T16:22:37.714Z,51.08
2018-06-18T16:25:07.073Z,51.89
2018-06-18T16:27:36.522Z,50.94
2018-06-18T16:30:06.278Z,51.15
2018-06-18T16:32:35.757Z,50.84
2018-06-18T16:35:05.335Z,50.93
2018-06-18T16:37:34.623Z,51.27
2018-06-18T16:40:04.013Z,50.33
2018-06-18T16:42:33.598Z,50.44
2018-06-18T16:45:02.912Z,51.67
2018-06-18T16:47:33.074Z,50.65
2018-06-18T16:50:02.632Z,50.98
2018-06-18T16:52:32.185Z,51.43
2018-06-18T16:55:01.534Z,51.08
2018-06-18T16:57:31.577Z,50.48
2018-06-18T17:00:01.171Z,52.22
2018-06-18T17:02:30.487Z,52.50
2018-06-18T17:05:00.539Z,52.14
2018-06-18T17:07:29.873Z,51.75
2018-06-18T17:10:00.116Z,52.34
2018-06-18T17:12:29.474Z,51.40
2018-06-18T17:14:59.056Z,52.80
2018-06-18T17:17:31.303Z,53.07
2018-06-18T17:20:01.055Z,52.67
2018-06-18T17:22:31.271Z,52.77
2018-06-18T17:25:02.331Z,52.23
2018-06-18T17:27:31.677Z,51.98
2018-06-18T17:30:01.013Z,51.93
2018-06-18T17:32:30.611Z,52.61
2018-06-18T17:34:59.969Z,51.67
2018-06-18T17:37:29.302Z,52.19
2018-06-18T17:39:59.729Z,52.36
2018-06-18T17:42:29.258Z,52.71
2018-06-18T17:44:58.709Z,53.14
2018-06-18T17:47:28.365Z,53.27
2018-06-18T17:49:58.125Z,53.13
2018-06-18T17:52:27.461Z,53.70
2018-06-18T17:54:57.121Z,53.40
2018-06-18T17:57:26.779Z,53.65
2018-06-18T17:59:56.470Z,53.66
2018-06-18T18:02:25.797Z,54.31
2018-06-18T18:04:57.625Z,53.91
2018-06-18T18:07:30.312Z,53.85
2018-06-18T18:10:00.673Z,54.10
2018-06-18T18:12:30.120Z,54.88
2018-06-18T18:14:59.493Z,54.13
2018-06-18T18:17:29.171Z,54.01
2018-06-18T18:19:58.859Z,54.78
2018-06-18T18:22:28.380Z,54.43
2018-06-18T18:24:57.734Z,54.74
2018-06-18T18:27:27.693Z,55.37
2018-06-18T18:29:57.048Z,55.37
2018-06-18T18:32:26.744Z,55.27
2018-06-18T18:34:56.733Z,55.91
2018-06-18T18:37:26.025Z,56.56
2018-06-18T18:39:55.606Z,56.37
2018-06-18T18:42:24.924Z,56.57
2018-06-18T18:44:54.268Z,55.84
2018-06-18T18:47:23.859Z,56.46
2018-06-18T18:49:53.208Z,57.01
2018-06-18T18:52:22.904Z,57.69
2018-06-18T18:56:04.624Z,57.70
2018-06-18T18:58:56.620Z,59.97
2018-06-18T19:01:27.538Z,59.26
2018-06-18T19:04:00.803Z,59.48
2018-06-18T19:06:30.095Z,59.86
2018-06-18T19:09:00.480Z,59.98
2018-06-18T19:11:29.843Z,60.04
2018-06-18T19:13:59.137Z,61.45
2018-06-18T19:16:28.490Z,61.30
2018-06-18T19:19:00.266Z,61.91
2018-06-18T19:21:30.269Z,61.65
2018-06-18T19:23:59.593Z,61.41
2018-06-18T19:26:29.282Z,62.22
2018-06-18T19:28:59.144Z,62.70
2018-06-18T19:31:28.900Z,63.03
2018-06-18T19:34:20.478Z,63.13
2018-06-18T19:36:53.361Z,62.96
2018-06-18T19:39:27.891Z,63.14
2018-06-18T19:41:57.581Z,63.64
2018-06-18T19:44:27.215Z,63.45
2018-06-18T19:47:10.189Z,63.57
2018-06-18T19:49:39.493Z,64.43
2018-06-18T19:52:09.322Z,64.71
2018-06-18T19:55:12.919Z,64.71
2018-06-18T19:57:42.259Z,64.61
2018-06-18T20:00:12.578Z,64.09
2018-06-18T20:02:41.916Z,64.23
2018-06-18T20:05:11.877Z,64.54
2018-06-18T20:07:53.057Z,65.12
2018-06-18T20:10:23.276Z,65.37
2018-06-18T20:12:52.744Z,65.27
2018-06-18T20:15:23.015Z,65.16
2018-06-18T20:17:52.372Z,65.55
2018-06-18T20:20:21.982Z,65.91
2018-06-18T20:22:51.405Z,65.95
2018-06-18T20:25:24.740Z,66.38
2018-06-18T20:27:54.394Z,67.15
2018-06-18T20:30:24.359Z,68.13
2018-06-18T20:32:53.688Z,67.10
2018-06-18T20:35:26.923Z,66.26
2018-06-18T20:37:56.239Z,66.17
2018-06-18T20:40:25.840Z,65.42
2018-06-18T20:42:55.209Z,65.26
2018-06-18T20:45:24.595Z,66.97
2018-06-18T20:47:54.144Z,66.61
2018-06-18T20:50:23.648Z,66.16
2018-06-18T20:52:53.388Z,67.04
2018-06-18T20:55:23.058Z,66.26
2018-06-18T20:57:52.584Z,66.00
2018-06-18T21:00:21.875Z,64.71
2018-06-18T21:02:51.316Z,65.44
2018-06-18T21:05:20.960Z,65.70
2018-06-18T21:07:50.300Z,65.86
2018-06-18T21:10:19.832Z,66.46
2018-06-18T21:12:49.570Z,67.00
2018-06-18T21:15:19.125Z,66.58
2018-06-18T21:17:48.844Z,66.03
2018-06-18T21:20:18.587Z,65.95
2018-06-18T21:22:47.962Z,66.39
2018-06-18T21:25:18.362Z,66.42
2018-06-18T21:27:47.737Z,66.43
2018-06-18T21:30:17.082Z,66.31
2018-06-18T21:32:46.427Z,66.21
2018-06-18T21:35:16.072Z,66.17
2018-06-18T21:37:45.405Z,66.16
2018-06-18T21:40:15.020Z,66.73
2018-06-18T21:42:44.379Z,66.56
2018-06-18T21:45:22.020Z,67.42
2018-06-18T21:47:52.325Z,67.02
2018-06-18T21:50:21.648Z,67.28
2018-06-18T21:52:50.980Z,66.87
2018-06-18T21:55:20.630Z,67.21
2018-06-18T21:57:50.036Z,67.32
2018-06-18T22:00:29.317Z,67.17
2018-06-18T22:02:58.853Z,67.48
2018-06-18T22:05:28.461Z,67.38
2018-06-18T22:07:58.064Z,68.00
2018-06-18T22:10:27.425Z,68.28
2018-06-18T22:12:56.766Z,68.20
2018-06-18T22:15:26.182Z,68.51
2018-06-18T22:17:55.483Z,69.23
2018-06-18T22:20:24.885Z,68.91
2018-06-18T22:22:54.385Z,69.48
2018-06-18T22:25:24.055Z,69.10
2018-06-18T22:27:53.869Z,68.91
2018-06-18T22:30:23.446Z,68.91
2018-06-18T22:32:53.150Z,69.17
2018-06-18T22:35:23.400Z,68.74
2018-06-18T22:37:52.741Z,69.62
2018-06-18T22:40:22.086Z,69.69
2018-06-18T22:42:51.825Z,70.29
2018-06-18T22:45:21.174Z,70.97
2018-06-18T22:47:50.827Z,70.88
2018-06-18T22:50:20.175Z,70.62
2018-06-18T22:52:49.501Z,70.33
2018-06-18T22:55:18.850Z,70.36
2018-06-18T22:57:48.187Z,70.25
2018-06-18T23:00:17.899Z,71.47
2018-06-18T23:02:47.628Z,72.03
2018-06-18T23:05:17.280Z,72.79
2018-06-18T23:07:46.942Z,73.37
2018-06-18T23:10:16.310Z,73.58
2018-06-18T23:12:46.384Z,73.04
2018-06-18T23:15:15.916Z,73.12
2018-06-18T23:17:45.256Z,72.56
2018-06-18T23:20:14.958Z,72.83
2018-06-18T23:22:45.200Z,74.19
2018-06-18T23:25:15.002Z,73.50
2018-06-18T23:27:44.444Z,74.08
2018-06-18T23:30:13.801Z,73.99
2018-06-18T23:32:43.558Z,73.69
2018-06-18T23:35:12.890Z,73.43
2018-06-18T23:37:42.463Z,73.92
2018-06-18T23:40:11.778Z,73.97
2018-06-18T23:42:41.430Z,73.86
2018-06-18T23:45:10.748Z,73.64
2018-06-18T23:47:40.738Z,74.03
2018-06-18T23:50:10.102Z,73.74
2018-06-18T23:52:39.744Z,73.98
2018-06-18T23:55:09.410Z,73.24
2018-06-18T23:57:38.806Z,73.10
